Time;durP1;ratioP1;P1;durP2;ratioP2;P2;SDS_P1;SDS_P2;PMS_P1;PMS_P2;Temp;Humidity;BMP_temperature;BMP_pressure;BME280_temperature;BME280_humidity;BME280_pressure;Samples;Min_cycle;Max_cycle;Signal;HPM_P1;HPM_P2
2022/04/14 00:02:10;;;;;;;7.68;5.97;;;16.70;99.90;;;;;;4966666;28;20188;-66
2022/04/14 00:04:36;;;;;;;7.90;5.97;;;16.70;99.90;;;;;;4961737;28;20200;-66
2022/04/14 00:07:02;;;;;;;9.73;6.05;;;16.70;99.90;;;;;;4969916;28;20184;-66
2022/04/14 00:09:35;;;;;;;9.10;6.15;;;16.60;99.90;;;;;;4972832;28;20202;-64
2022/04/14 00:12:03;;;;;;;9.82;6.70;;;16.70;99.90;;;;;;4974252;28;20249;-66
2022/04/14 00:14:29;;;;;;;8.10;6.13;;;16.60;99.90;;;;;;4982469;28;20184;-65
2022/04/14 00:17:01;;;;;;;7.05;5.45;;;16.60;99.90;;;;;;5017065;28;20200;-66
2022/04/14 00:19:29;;;;;;;7.93;5.82;;;16.60;99.90;;;;;;4985171;28;20181;-66
2022/04/14 00:21:57;;;;;;;6.90;5.20;;;16.60;99.90;;;;;;4961133;28;20173;-66
2022/04/14 00:24:23;;;;;;;6.97;5.32;;;16.60;99.90;;;;;;5028634;28;20187;-65
2022/04/14 00:26:48;;;;;;;8.60;5.68;;;16.50;99.90;;;;;;5068911;28;20283;-66
2022/04/14 00:29:16;;;;;;;7.78;5.88;;;16.50;99.90;;;;;;4993855;28;20188;-66
2022/04/14 00:31:42;;;;;;;7.35;5.38;;;16.50;99.90;;;;;;4984944;28;20287;-66
2022/04/14 00:34:07;;;;;;;6.57;5.30;;;16.50;99.90;;;;;;4971368;28;20243;-68
2022/04/14 00:36:33;;;;;;;6.22;5.40;;;16.50;99.90;;;;;;4967178;28;20200;-66
2022/04/14 00:38:59;;;;;;;7.40;5.38;;;16.50;99.90;;;;;;4987999;28;20192;-72
2022/04/14 00:41:27;;;;;;;7.65;5.43;;;16.50;99.90;;;;;;4970762;28;20184;-66
2022/04/14 00:43:55;;;;;;;7.65;5.07;;;16.50;99.90;;;;;;4963672;28;20195;-66
2022/04/14 00:46:21;;;;;;;7.18;5.43;;;16.50;99.90;;;;;;5022248;28;20229;-66
2022/04/14 00:48:49;;;;;;;7.57;6.10;;;16.50;99.90;;;;;;4978751;28;20336;-66
2022/04/14 00:51:15;;;;;;;7.63;5.95;;;16.40;99.90;;;;;;4985788;28;20365;-66
2022/04/14 00:53:40;;;;;;;6.70;5.78;;;16.40;99.90;;;;;;4961685;28;20189;-66
2022/04/14 00:56:06;;;;;;;6.78;5.35;;;16.40;99.90;;;;;;4962697;28;20207;-66
2022/04/14 00:58:33;;;;;;;7.20;6.07;;;16.40;99.90;;;;;;4976563;28;20281;-67
2022/04/14 01:01:00;;;;;;;8.68;6.20;;;16.30;99.90;;;;;;4972096;28;20176;-65
2022/04/14 01:03:28;;;;;;;8.23;6.05;;;16.30;99.90;;;;;;4970778;28;20192;-65
2022/04/14 01:05:56;;;;;;;7.18;5.90;;;16.30;99.90;;;;;;5000498;28;20201;-66
2022/04/14 01:08:24;;;;;;;8.48;6.57;;;16.30;99.90;;;;;;4953549;28;20177;-65
2022/04/14 01:10:54;;;;;;;7.80;6.10;;;16.30;99.90;;;;;;4970790;28;20185;-65
2022/04/14 01:13:23;;;;;;;8.50;6.13;;;16.30;99.90;;;;;;4960216;28;20180;-65
2022/04/14 01:15:48;;;;;;;7.43;5.63;;;16.30;99.90;;;;;;4979706;28;20180;-65
2022/04/14 01:18:15;;;;;;;9.30;6.90;;;16.30;99.90;;;;;;4983720;28;20204;-66
2022/04/14 01:20:44;;;;;;;8.73;6.75;;;16.30;99.90;;;;;;4968363;28;20188;-65
2022/04/14 01:23:19;;;;;;;9.15;6.53;;;16.30;99.90;;;;;;4963274;28;20176;-66
2022/04/14 01:25:48;;;;;;;10.82;6.93;;;16.20;99.90;;;;;;4961047;28;20358;-65
2022/04/14 01:28:18;;;;;;;9.65;6.82;;;16.20;99.90;;;;;;4972088;28;20187;-66
2022/04/14 01:30:46;;;;;;;10.63;6.90;;;16.20;99.90;;;;;;4966102;28;20215;-65
2022/04/14 01:33:12;;;;;;;9.20;7.30;;;16.20;99.90;;;;;;4990116;28;20264;-65
2022/04/14 01:35:38;;;;;;;9.18;6.68;;;16.20;99.90;;;;;;5027041;28;20271;-65
2022/04/14 01:38:06;;;;;;;9.88;7.00;;;16.20;99.90;;;;;;5007813;28;20200;-66
2022/04/14 01:40:34;;;;;;;9.02;7.05;;;16.10;99.90;;;;;;4970717;28;20211;-67
2022/04/14 01:43:00;;;;;;;9.73;7.25;;;16.10;99.90;;;;;;4965048;28;20189;-65
2022/04/14 01:45:28;;;;;;;9.70;7.55;;;16.10;99.90;;;;;;4970583;28;20241;-65
2022/04/14 01:47:53;;;;;;;10.10;7.28;;;16.10;99.90;;;;;;4974489;28;20195;-66
2022/04/14 01:50:20;;;;;;;10.13;8.15;;;16.10;99.90;;;;;;4974158;28;20208;-66
2022/04/14 01:52:48;;;;;;;9.98;8.32;;;16.10;99.90;;;;;;4971565;28;20187;-65
2022/04/14 01:55:16;;;;;;;11.45;8.60;;;16.00;99.90;;;;;;4971805;28;20179;-65
2022/04/14 01:57:41;;;;;;;11.88;8.75;;;16.00;99.90;;;;;;4966085;28;20208;-66
2022/04/14 02:00:09;;;;;;;11.73;8.95;;;16.00;99.90;;;;;;4970992;28;20214;-64
2022/04/14 02:02:35;;;;;;;12.65;9.52;;;16.00;99.90;;;;;;5063819;28;20215;-66
2022/04/14 02:05:01;;;;;;;12.20;10.25;;;15.90;99.90;;;;;;4995457;28;20172;-64
2022/04/14 02:07:29;;;;;;;13.90;10.88;;;15.90;99.90;;;;;;4969263;28;20244;-65
2022/04/14 02:09:55;;;;;;;12.68;9.75;;;15.80;99.90;;;;;;4970926;28;20203;-65
2022/04/14 02:12:24;;;;;;;14.43;10.63;;;15.80;99.90;;;;;;4968978;28;20297;-65
2022/04/14 02:14:50;;;;;;;11.27;8.88;;;15.70;99.90;;;;;;4967581;28;20180;-64
2022/04/14 02:17:19;;;;;;;12.98;10.05;;;15.70;99.90;;;;;;4970867;28;20216;-65
2022/04/14 02:19:44;;;;;;;12.13;9.95;;;15.60;99.90;;;;;;4974153;28;20211;-64
2022/04/14 02:22:12;;;;;;;13.18;10.50;;;15.60;99.90;;;;;;4971584;28;20176;-65
2022/04/14 02:24:45;;;;;;;12.43;9.18;;;15.60;99.90;;;;;;4969614;28;20215;-65
2022/04/14 02:27:13;;;;;;;11.68;9.38;;;15.50;99.90;;;;;;4969672;28;20193;-65
2022/04/14 02:29:40;;;;;;;11.57;9.50;;;15.50;99.90;;;;;;5006506;28;21836;-66
2022/04/14 02:32:06;;;;;;;11.52;9.57;;;15.40;99.90;;;;;;4996590;28;20207;-67
2022/04/14 02:34:36;;;;;;;12.40;8.88;;;15.40;99.90;;;;;;4971640;28;20204;-65
2022/04/14 02:37:02;;;;;;;11.23;8.50;;;15.40;99.90;;;;;;4975193;28;20292;-64
2022/04/14 02:39:31;;;;;;;10.65;8.38;;;15.40;99.90;;;;;;4987675;28;20181;-65
2022/04/14 02:41:56;;;;;;;12.00;8.55;;;15.30;99.90;;;;;;4971601;28;20263;-63
2022/04/14 02:44:22;;;;;;;9.85;8.25;;;15.30;99.90;;;;;;4974079;28;20238;-66
2022/04/14 02:46:47;;;;;;;12.10;9.10;;;15.30;99.90;;;;;;4965952;28;20200;-64
2022/04/14 02:49:15;;;;;;;11.27;8.45;;;15.20;99.90;;;;;;5000713;28;20266;-66
2022/04/14 02:51:41;;;;;;;10.05;6.90;;;15.20;99.90;;;;;;5003765;28;20232;-66
2022/04/14 02:54:11;;;;;;;9.65;7.32;;;15.20;99.90;;;;;;4969895;28;20177;-63
2022/04/14 02:56:37;;;;;;;9.05;7.47;;;15.10;99.90;;;;;;4972098;28;20210;-66
2022/04/14 02:59:05;;;;;;;9.85;7.78;;;15.10;99.90;;;;;;4971719;28;20181;-66
2022/04/14 03:01:30;;;;;;;10.30;7.63;;;15.10;99.90;;;;;;4968311;28;20243;-68
2022/04/14 03:03:56;;;;;;;10.57;7.90;;;15.10;99.90;;;;;;4979077;28;20266;-65
2022/04/14 03:06:24;;;;;;;9.13;7.32;;;15.10;99.90;;;;;;4973369;28;20240;-66
2022/04/14 03:08:52;;;;;;;10.40;7.20;;;15.10;99.90;;;;;;4977535;28;20279;-66
2022/04/14 03:11:17;;;;;;;9.40;7.07;;;15.10;99.90;;;;;;4982683;28;20212;-63
2022/04/14 03:13:45;;;;;;;10.57;8.23;;;15.10;99.90;;;;;;4965244;28;20329;-65
2022/04/14 03:16:13;;;;;;;10.00;7.53;;;15.10;99.90;;;;;;4981510;28;20245;-66
2022/04/14 03:18:41;;;;;;;10.55;7.80;;;15.10;99.90;;;;;;4970674;28;20258;-66
2022/04/14 03:21:11;;;;;;;8.57;7.30;;;15.10;99.90;;;;;;4988485;28;20271;-66
2022/04/14 03:23:39;;;;;;;11.32;8.10;;;15.10;99.90;;;;;;4973076;28;20275;-66
2022/04/14 03:26:08;;;;;;;10.52;7.82;;;15.10;99.90;;;;;;4977935;28;20184;-65
2022/04/14 03:28:38;;;;;;;11.73;8.48;;;15.10;99.90;;;;;;4993419;28;20179;-68
2022/04/14 03:31:06;;;;;;;10.75;8.50;;;15.10;99.90;;;;;;4971806;28;20200;-66
2022/04/14 03:33:32;;;;;;;12.00;8.13;;;15.10;99.90;;;;;;4988631;28;20296;-66
2022/04/14 03:35:59;;;;;;;11.23;8.17;;;15.10;99.90;;;;;;4978039;28;20271;-66
2022/04/14 03:38:27;;;;;;;11.85;8.75;;;15.10;99.90;;;;;;4969073;28;20278;-66
2022/04/14 03:40:55;;;;;;;12.50;9.00;;;15.10;99.90;;;;;;4958739;28;20207;-66
2022/04/14 03:43:23;;;;;;;10.98;8.43;;;15.10;99.90;;;;;;4964059;28;20172;-66
2022/04/14 03:45:49;;;;;;;10.52;8.07;;;15.20;99.90;;;;;;4971854;28;20235;-63
2022/04/14 03:48:14;;;;;;;11.77;8.55;;;15.20;99.90;;;;;;4972049;28;20203;-65
2022/04/14 03:50:40;;;;;;;11.27;8.65;;;15.20;99.90;;;;;;4965564;28;20238;-66
2022/04/14 03:53:05;;;;;;;12.27;9.10;;;15.20;99.90;;;;;;4963302;28;20272;-66
2022/04/14 03:55:36;;;;;;;11.85;9.40;;;15.20;99.90;;;;;;4989481;28;20185;-66
2022/04/14 03:58:01;;;;;;;11.68;9.30;;;15.20;99.90;;;;;;4970128;28;20208;-66
2022/04/14 04:00:29;;;;;;;13.30;9.02;;;15.20;99.90;;;;;;4972631;28;20191;-66
2022/04/14 04:02:57;;;;;;;12.98;9.50;;;15.20;99.90;;;;;;4972329;28;20290;-66
2022/04/14 04:05:25;;;;;;;12.90;9.52;;;15.20;99.90;;;;;;4969436;28;20201;-66
2022/04/14 04:07:51;;;;;;;12.52;9.38;;;15.30;99.90;;;;;;5053600;28;20173;-65
2022/04/14 04:10:16;;;;;;;13.68;10.40;;;15.30;99.90;;;;;;5017107;28;20185;-66
2022/04/14 04:12:44;;;;;;;12.63;9.85;;;15.30;99.90;;;;;;4970566;28;20242;-66
2022/04/14 04:15:12;;;;;;;13.73;10.10;;;15.30;99.90;;;;;;4973430;28;20188;-65
2022/04/14 04:17:40;;;;;;;14.38;10.57;;;15.30;99.90;;;;;;4970978;28;20215;-66
2022/04/14 04:20:07;;;;;;;15.20;9.98;;;15.30;99.90;;;;;;4964118;28;20177;-65
2022/04/14 04:22:35;;;;;;;13.18;9.98;;;15.30;99.90;;;;;;4980694;28;20211;-66
2022/04/14 04:25:04;;;;;;;15.68;10.45;;;15.30;99.90;;;;;;4970622;28;20263;-66
2022/04/14 04:27:35;;;;;;;14.77;11.00;;;15.30;99.90;;;;;;4966164;28;20275;-65
2022/04/14 04:30:01;;;;;;;15.43;11.07;;;15.30;99.90;;;;;;4967092;28;20180;-65
2022/04/14 04:32:26;;;;;;;15.25;11.20;;;15.30;99.90;;;;;;4979695;28;20173;-66
2022/04/14 04:34:52;;;;;;;13.50;10.77;;;15.30;99.90;;;;;;4958502;28;20255;-66
2022/04/14 04:37:18;;;;;;;14.45;11.20;;;15.30;99.90;;;;;;5012788;28;20214;-65
2022/04/14 04:39:45;;;;;;;15.25;11.38;;;15.30;99.90;;;;;;4964530;28;20232;-65
2022/04/14 04:42:13;;;;;;;15.80;12.05;;;15.30;99.90;;;;;;4964024;28;20205;-66
2022/04/14 04:44:41;;;;;;;15.82;11.90;;;15.30;99.90;;;;;;4968776;28;20231;-66
2022/04/14 04:47:07;;;;;;;15.35;11.65;;;15.30;99.90;;;;;;4965390;28;20181;-66
2022/04/14 04:49:35;;;;;;;18.20;13.38;;;15.20;99.90;;;;;;4991724;28;20180;-66
2022/04/14 04:52:03;;;;;;;17.83;13.32;;;15.20;99.90;;;;;;4957144;28;20208;-66
2022/04/14 04:54:31;;;;;;;16.00;12.80;;;15.20;99.90;;;;;;4967657;28;20195;-64
2022/04/14 04:56:57;;;;;;;18.13;13.60;;;15.20;99.90;;;;;;4968474;28;20298;-65
2022/04/14 04:59:23;;;;;;;19.13;13.65;;;15.10;99.90;;;;;;4981406;28;20223;-66
2022/04/14 05:01:51;;;;;;;19.35;14.63;;;15.10;99.90;;;;;;4972695;28;20184;-67
2022/04/14 05:04:17;;;;;;;19.38;14.95;;;15.00;99.90;;;;;;4964684;28;20202;-65
2022/04/14 05:06:45;;;;;;;23.67;16.10;;;15.00;99.90;;;;;;4968921;28;20769;-65
2022/04/14 05:09:11;;;;;;;20.92;14.43;;;14.90;99.90;;;;;;4968454;28;20268;-65
2022/04/14 05:11:37;;;;;;;18.80;14.43;;;14.90;99.90;;;;;;4970524;28;20296;-67
2022/04/14 05:14:02;;;;;;;19.17;14.55;;;14.80;99.90;;;;;;4971235;28;20183;-65
2022/04/14 05:16:30;;;;;;;21.23;15.30;;;14.80;99.90;;;;;;4968602;28;20228;-65
2022/04/14 05:18:56;;;;;;;21.08;15.02;;;14.70;99.90;;;;;;4994721;28;20216;-77
2022/04/14 05:21:26;;;;;;;22.58;15.77;;;14.70;99.90;;;;;;4983561;28;20245;-76
2022/04/14 05:23:54;;;;;;;21.27;15.68;;;14.70;99.90;;;;;;4968840;28;20350;-76
2022/04/14 05:26:22;;;;;;;23.42;16.80;;;14.60;99.90;;;;;;5045191;28;20184;-77
2022/04/14 05:28:48;;;;;;;21.75;15.95;;;14.60;99.90;;;;;;5028524;28;20180;-77
2022/04/14 05:31:14;;;;;;;21.77;16.25;;;14.60;99.90;;;;;;4966360;28;20252;-77
2022/04/14 05:33:40;;;;;;;24.90;16.75;;;14.50;99.90;;;;;;5002574;28;20200;-77
2022/04/14 05:36:08;;;;;;;23.70;15.95;;;14.50;99.90;;;;;;4968287;28;20215;-77
2022/04/14 05:38:36;;;;;;;24.85;16.73;;;14.50;99.90;;;;;;4998307;28;20191;-74
2022/04/14 05:41:04;;;;;;;25.08;17.35;;;14.50;99.90;;;;;;4976921;28;20176;-77
2022/04/14 05:43:32;;;;;;;25.70;18.35;;;14.50;99.90;;;;;;4999027;28;20196;-77
2022/04/14 05:45:59;;;;;;;26.98;17.92;;;14.40;99.90;;;;;;4971873;28;20180;-77
2022/04/14 05:48:29;;;;;;;28.85;18.02;;;14.40;99.90;;;;;;4970242;28;20472;-76
2022/04/14 05:50:57;;;;;;;27.05;17.83;;;14.40;99.90;;;;;;4962766;28;20267;-76
2022/04/14 05:53:25;;;;;;;28.20;17.77;;;14.40;99.90;;;;;;4956515;28;20195;-76
2022/04/14 05:55:54;;;;;;;24.77;17.33;;;14.40;99.90;;;;;;5004785;28;20237;-77
2022/04/14 05:58:19;;;;;;;26.88;18.17;;;14.40;99.90;;;;;;4973630;28;20214;-75
2022/04/14 06:00:48;;;;;;;25.95;17.67;;;14.40;99.90;;;;;;4978300;28;20164;-77
2022/04/14 06:03:13;;;;;;;25.75;17.13;;;14.40;99.90;;;;;;4971889;28;20206;-77
2022/04/14 06:05:39;;;;;;;28.52;18.88;;;14.40;99.90;;;;;;4988699;28;20271;-77
2022/04/14 06:08:05;;;;;;;27.35;18.60;;;14.50;99.90;;;;;;4988779;28;20204;-75
2022/04/14 06:10:31;;;;;;;26.80;19.75;;;14.50;99.90;;;;;;4967450;28;20226;-77
2022/04/14 06:13:01;;;;;;;29.23;19.88;;;14.60;99.90;;;;;;4973109;28;20184;-77
2022/04/14 06:15:27;;;;;;;26.98;18.10;;;14.60;99.90;;;;;;4992421;28;20238;-77
2022/04/14 06:17:55;;;;;;;26.27;17.95;;;14.60;99.90;;;;;;4970450;28;20235;-77
2022/04/14 06:20:21;;;;;;;28.30;19.20;;;14.60;99.90;;;;;;4973701;28;20262;-78
2022/04/14 06:22:47;;;;;;;26.35;18.90;;;14.60;99.90;;;;;;4979037;28;20264;-76
2022/04/14 06:25:16;;;;;;;27.73;19.10;;;14.70;99.90;;;;;;4970538;28;20271;-77
2022/04/14 06:27:43;;;;;;;27.55;19.88;;;14.70;99.90;;;;;;4966992;28;20212;-79
2022/04/14 06:30:11;;;;;;;27.83;18.77;;;14.70;99.90;;;;;;4968134;28;20245;-77
2022/04/14 06:32:38;;;;;;;27.40;19.30;;;14.80;99.90;;;;;;4973575;28;20184;-77
2022/04/14 06:35:06;;;;;;;28.23;19.38;;;14.80;99.90;;;;;;4974631;28;20255;-74
2022/04/14 06:37:32;;;;;;;27.15;19.08;;;14.80;99.90;;;;;;4968068;28;20201;-78
2022/04/14 06:39:58;;;;;;;26.02;19.30;;;14.80;99.90;;;;;;4996544;28;20217;-78
2022/04/14 06:42:26;;;;;;;27.10;18.85;;;14.80;99.90;;;;;;4984148;28;20282;-77
2022/04/14 06:44:57;;;;;;;29.45;18.48;;;14.80;99.90;;;;;;5006695;28;20191;-75
2022/04/14 06:47:26;;;;;;;26.58;18.27;;;14.80;99.90;;;;;;4968174;28;20226;-70
2022/04/14 06:49:51;;;;;;;27.35;18.45;;;14.70;99.90;;;;;;4982878;28;20199;-76
2022/04/14 06:52:17;;;;;;;24.92;17.45;;;14.80;99.90;;;;;;4974120;28;20188;-77
2022/04/14 06:54:43;;;;;;;27.08;18.27;;;14.80;99.90;;;;;;5023900;28;20180;-72
2022/04/14 06:57:11;;;;;;;25.27;17.92;;;14.80;99.90;;;;;;4970284;28;20227;-74
2022/04/14 06:59:37;;;;;;;29.35;19.25;;;14.80;99.90;;;;;;4972230;28;20196;-73
2022/04/14 07:02:05;;;;;;;28.85;19.08;;;14.80;99.90;;;;;;4965659;28;20191;-75
2022/04/14 07:04:33;;;;;;;30.02;19.45;;;14.80;99.90;;;;;;5017779;28;20187;-76
2022/04/14 07:06:58;;;;;;;28.20;19.23;;;14.80;99.90;;;;;;4969196;28;20224;-73
2022/04/14 07:09:24;;;;;;;26.05;18.00;;;14.80;99.90;;;;;;4974962;28;20184;-76
2022/04/14 07:11:53;;;;;;;28.42;18.83;;;14.90;99.90;;;;;;5009400;28;20188;-76
2022/04/14 07:14:21;;;;;;;29.58;18.50;;;14.90;99.90;;;;;;4958384;28;20242;-75
2022/04/14 07:16:46;;;;;;;25.60;17.75;;;14.90;99.90;;;;;;4964838;28;20257;-73
2022/04/14 07:19:12;;;;;;;26.77;17.95;;;14.90;99.90;;;;;;4969152;28;20201;-73
2022/04/14 07:21:40;;;;;;;25.50;17.15;;;14.90;99.90;;;;;;4997334;28;20184;-73
2022/04/14 07:24:06;;;;;;;25.73;17.92;;;15.00;99.90;;;;;;4975384;28;20206;-76
2022/04/14 07:26:34;;;;;;;25.88;17.63;;;15.00;99.90;;;;;;4981476;28;20287;-76
2022/04/14 07:29:01;;;;;;;26.85;17.23;;;14.90;99.90;;;;;;4972777;28;20184;-72
2022/04/14 07:31:27;;;;;;;24.42;16.38;;;14.90;99.90;;;;;;4972756;28;20192;-75
2022/04/14 07:33:53;;;;;;;21.75;15.40;;;14.90;99.90;;;;;;4962013;28;20193;-76
2022/04/14 07:36:21;;;;;;;22.08;15.07;;;14.90;99.90;;;;;;4998895;28;20242;-75
2022/04/14 07:38:51;;;;;;;20.60;14.80;;;14.90;99.90;;;;;;5014778;28;20227;-75
2022/04/14 07:41:17;;;;;;;22.60;15.00;;;14.90;99.90;;;;;;4966803;28;20184;-76
2022/04/14 07:43:47;;;;;;;20.50;14.80;;;14.90;99.90;;;;;;4971082;28;20172;-75
2022/04/14 07:46:13;;;;;;;19.98;14.50;;;15.00;99.90;;;;;;4982119;28;20221;-75
2022/04/14 07:48:39;;;;;;;21.30;15.02;;;15.00;99.90;;;;;;4972797;28;20279;-75
2022/04/14 07:51:07;;;;;;;20.30;14.55;;;15.00;99.90;;;;;;5008256;28;20207;-74
2022/04/14 07:53:37;;;;;;;19.60;13.73;;;15.00;99.90;;;;;;5019060;28;20181;-76
2022/04/14 07:56:05;;;;;;;20.42;14.65;;;15.10;99.90;;;;;;4977830;28;20180;-76
2022/04/14 07:58:33;;;;;;;21.27;14.30;;;15.10;99.90;;;;;;5004776;28;20212;-75
2022/04/14 08:01:01;;;;;;;18.80;13.80;;;15.10;99.90;;;;;;4969365;28;20184;-76
2022/04/14 08:03:32;;;;;;;17.83;13.57;;;15.20;99.90;;;;;;4971950;28;20176;-75
2022/04/14 08:06:02;;;;;;;19.90;13.27;;;15.20;99.90;;;;;;4966594;28;20290;-75
2022/04/14 08:08:28;;;;;;;18.33;13.15;;;15.30;99.90;;;;;;5022605;28;20200;-73
2022/04/14 08:10:54;;;;;;;19.10;13.45;;;15.30;99.90;;;;;;4973192;28;20210;-74
2022/04/14 08:13:20;;;;;;;19.50;13.60;;;15.40;99.90;;;;;;4975096;28;20242;-75
2022/04/14 08:15:46;;;;;;;17.00;13.18;;;15.50;99.90;;;;;;4957893;28;20181;-73
2022/04/14 08:18:11;;;;;;;18.75;13.57;;;15.60;99.90;;;;;;4985636;28;20200;-75
2022/04/14 08:20:40;;;;;;;18.25;12.23;;;15.60;99.90;;;;;;4971146;28;20179;-75
2022/04/14 08:23:14;;;;;;;19.92;13.88;;;15.70;99.90;;;;;;4971758;28;20176;-72
2022/04/14 08:25:40;;;;;;;19.63;14.07;;;15.80;99.90;;;;;;5000468;28;20204;-75
2022/04/14 08:28:07;;;;;;;18.30;14.07;;;15.90;99.90;;;;;;4970167;28;20195;-74
2022/04/14 08:30:40;;;;;;;18.77;13.82;;;16.00;99.90;;;;;;5002092;28;20213;-75
2022/04/14 08:33:12;;;;;;;17.73;13.45;;;16.00;99.90;;;;;;4965579;28;20185;-75
2022/04/14 08:35:37;;;;;;;20.45;13.90;;;16.10;99.90;;;;;;4964949;28;20188;-74
2022/04/14 08:38:06;;;;;;;19.75;14.07;;;16.10;99.90;;;;;;4991250;28;20309;-75
2022/04/14 08:40:36;;;;;;;18.85;13.65;;;16.20;99.90;;;;;;5004245;28;20255;-74
2022/04/14 08:43:09;;;;;;;19.42;13.55;;;16.20;99.90;;;;;;5030496;28;20207;-74
2022/04/14 08:45:42;;;;;;;19.05;14.35;;;16.20;99.90;;;;;;4969508;28;20264;-75
2022/04/14 08:48:08;;;;;;;20.42;14.43;;;16.20;99.90;;;;;;4970416;28;20215;-76
2022/04/14 08:50:34;;;;;;;20.63;14.10;;;16.30;99.90;;;;;;5002603;28;20200;-76
2022/04/14 08:53:05;;;;;;;21.05;15.48;;;16.30;99.90;;;;;;4969782;28;20180;-76
2022/04/14 08:55:31;;;;;;;18.25;13.65;;;16.40;99.90;;;;;;4990473;28;20180;-73
2022/04/14 08:57:57;;;;;;;19.08;14.55;;;16.40;99.90;;;;;;4990499;28;20197;-75
2022/04/14 09:00:26;;;;;;;19.42;14.52;;;16.50;99.90;;;;;;4981569;28;20173;-74
2022/04/14 09:02:54;;;;;;;19.98;15.05;;;16.50;99.90;;;;;;4973350;28;20325;-72
2022/04/14 09:05:19;;;;;;;21.67;15.27;;;16.50;99.90;;;;;;4971926;28;20483;-74
2022/04/14 09:07:49;;;;;;;19.63;14.63;;;16.60;99.90;;;;;;4971780;28;20192;-73
2022/04/14 09:10:20;;;;;;;21.48;16.23;;;16.60;99.90;;;;;;4972327;28;20264;-73
2022/04/14 09:12:49;;;;;;;22.08;16.38;;;16.60;99.90;;;;;;4971446;28;20202;-73
2022/04/14 09:15:16;;;;;;;20.85;15.63;;;16.60;99.90;;;;;;4972091;28;20184;-74
2022/04/14 09:17:42;;;;;;;21.60;15.88;;;16.60;99.90;;;;;;4994202;28;20273;-75
2022/04/14 09:20:37;;;;;;;18.77;14.32;;;16.50;99.90;;;;;;4996427;28;20198;-73
2022/04/14 09:23:21;;;;;;;19.23;13.82;;;16.60;99.90;;;;;;4984399;28;20216;-74
2022/04/14 09:25:50;;;;;;;18.95;14.13;;;16.60;99.90;;;;;;5012255;28;20253;-74
2022/04/14 09:28:20;;;;;;;21.23;16.25;;;16.70;99.90;;;;;;5018165;28;20200;-76
2022/04/14 09:31:03;;;;;;;22.35;16.70;;;16.70;99.90;;;;;;4955577;28;20188;-74
2022/04/14 09:33:31;;;;;;;21.13;15.45;;;16.80;99.90;;;;;;4975811;28;20184;-71
2022/04/14 09:36:27;;;;;;;22.05;16.33;;;16.90;99.90;;;;;;4970503;28;20323;-69
2022/04/14 09:38:56;;;;;;;20.63;16.02;;;16.90;99.90;;;;;;4993129;28;20253;-75
2022/04/14 09:41:34;;;;;;;20.35;14.98;;;17.00;99.90;;;;;;4984669;28;20168;-77
2022/04/14 09:44:13;;;;;;;21.33;16.05;;;17.20;99.90;;;;;;4996014;28;20249;-78
2022/04/14 09:46:45;;;;;;;20.58;16.17;;;17.30;99.90;;;;;;4966943;28;20185;-74
2022/04/14 09:49:13;;;;;;;27.20;19.40;;;17.50;99.90;;;;;;4994995;28;20446;-75
2022/04/14 09:51:44;;;;;;;25.67;17.95;;;17.60;99.90;;;;;;4978736;28;20180;-76
2022/04/14 09:54:14;;;;;;;25.17;19.17;;;17.80;99.90;;;;;;4993004;28;20184;-75
2022/04/14 09:56:55;;;;;;;23.20;17.95;;;18.00;99.90;;;;;;4964143;28;20370;-74
2022/04/14 09:59:25;;;;;;;25.80;19.27;;;18.20;99.90;;;;;;4959516;28;20180;-74
2022/04/14 10:02:21;;;;;;;24.80;20.25;;;18.40;99.90;;;;;;4966474;28;20283;-74
2022/04/14 10:04:48;;;;;;;26.00;21.40;;;18.70;99.90;;;;;;4972704;28;20182;-75
2022/04/14 10:07:16;;;;;;;27.48;22.55;;;18.90;99.90;;;;;;4967577;28;20299;-74
2022/04/14 10:09:47;;;;;;;26.27;21.65;;;19.10;99.90;;;;;;4961559;28;20210;-75
2022/04/14 10:12:15;;;;;;;27.05;22.25;;;19.20;99.90;;;;;;5017893;28;20190;-75
2022/04/14 10:14:41;;;;;;;27.70;22.52;;;19.20;99.90;;;;;;5030055;28;20287;-74
2022/04/14 10:17:10;;;;;;;27.73;22.83;;;19.20;99.90;;;;;;5035348;28;20290;-74
2022/04/14 10:19:38;;;;;;;25.75;21.98;;;19.30;99.90;;;;;;4968676;28;20276;-74
2022/04/14 10:22:06;;;;;;;28.67;23.83;;;19.50;99.90;;;;;;4971158;28;20187;-74
2022/04/14 10:24:35;;;;;;;35.58;27.30;;;19.80;99.90;;;;;;4989897;28;20196;-74
2022/04/14 10:27:03;;;;;;;33.13;27.45;;;20.00;99.90;;;;;;5019673;28;20230;-74
2022/04/14 10:29:31;;;;;;;28.35;23.98;;;20.10;99.90;;;;;;5006536;28;20237;-74
2022/04/14 10:31:58;;;;;;;30.65;26.33;;;20.20;99.90;;;;;;4982313;28;20267;-72
2022/04/14 10:34:24;;;;;;;26.00;23.02;;;20.10;99.90;;;;;;5012612;28;20207;-74
2022/04/14 10:36:51;;;;;;;25.92;21.38;;;20.00;99.90;;;;;;4970857;28;20254;-75
2022/04/14 10:39:18;;;;;;;27.77;22.75;;;19.90;99.90;;;;;;4979564;28;20201;-75
2022/04/14 10:41:51;;;;;;;23.55;20.83;;;19.90;99.90;;;;;;4976515;28;20177;-75
2022/04/14 10:44:21;;;;;;;26.35;21.85;;;20.00;99.90;;;;;;4984598;28;20180;-75
2022/04/14 10:46:50;;;;;;;23.77;20.63;;;20.30;99.90;;;;;;5026400;28;20240;-73
2022/04/14 10:49:24;;;;;;;24.17;21.30;;;20.70;99.90;;;;;;4987945;28;20183;-75
2022/04/14 10:51:54;;;;;;;25.98;23.15;;;21.00;99.90;;;;;;4981146;28;20211;-74
2022/04/14 10:54:21;;;;;;;23.15;20.40;;;21.20;99.90;;;;;;5001255;28;20192;-71
2022/04/14 10:56:51;;;;;;;20.13;17.75;;;21.50;99.90;;;;;;4965516;28;20208;-73
2022/04/14 10:59:31;;;;;;;20.40;18.20;;;21.80;99.90;;;;;;4964706;28;20197;-72
2022/04/14 11:02:02;;;;;;;17.23;15.50;;;22.20;99.90;;;;;;4967064;28;20177;-73
2022/04/14 11:04:41;;;;;;;16.50;14.57;;;22.40;99.90;;;;;;4976732;28;20192;-72
2022/04/14 11:07:07;;;;;;;17.77;15.98;;;22.70;99.90;;;;;;4983257;28;20199;-71
2022/04/14 11:09:41;;;;;;;16.08;14.05;;;22.80;99.90;;;;;;5039452;28;20257;-69
2022/04/14 11:12:17;;;;;;;15.23;13.73;;;22.90;99.90;;;;;;5004037;28;20221;-72
2022/04/14 11:14:51;;;;;;;17.02;15.13;;;23.00;99.90;;;;;;4967021;28;20172;-74
2022/04/14 11:17:47;;;;;;;17.55;15.70;;;23.10;99.90;;;;;;4997334;28;20203;-70
2022/04/14 11:20:18;;;;;;;15.02;13.45;;;23.20;99.90;;;;;;4983124;28;20226;-71
2022/04/14 11:23:05;;;;;;;16.50;14.45;;;23.30;99.90;;;;;;4998602;28;20185;-71
2022/04/14 11:25:41;;;;;;;13.32;11.95;;;23.60;99.90;;;;;;5005425;28;20349;-74
2022/04/14 11:28:18;;;;;;;12.75;11.40;;;23.80;99.90;;;;;;4975464;28;20180;-71
2022/04/14 11:30:44;;;;;;;15.48;12.50;;;23.90;99.90;;;;;;4954627;28;20185;-75
2022/04/14 11:33:14;;;;;;;14.55;13.05;;;23.90;99.90;;;;;;5016135;28;20187;-73
2022/04/14 11:35:47;;;;;;;14.20;12.70;;;23.70;99.90;;;;;;4989059;28;20277;-70
2022/04/14 11:38:51;;;;;;;13.82;12.40;;;23.50;99.90;;;;;;4966365;28;20505;-73
2022/04/14 11:41:39;;;;;;;12.27;11.02;;;23.30;99.90;;;;;;4962269;28;20293;-76
2022/04/14 11:44:11;;;;;;;11.80;10.40;;;23.30;99.90;;;;;;4993238;28;20191;-75
2022/04/14 11:46:50;;;;;;;11.27;10.18;;;23.50;99.90;;;;;;5015328;28;20187;-73
2022/04/14 11:49:21;;;;;;;11.35;9.93;;;23.70;99.90;;;;;;4974048;28;20180;-74
2022/04/14 11:51:56;;;;;;;11.15;10.07;;;23.90;99.90;;;;;;4993673;28;20251;-75
2022/04/14 11:54:33;;;;;;;11.85;10.75;;;23.90;99.90;;;;;;4990941;28;20245;-70
2022/04/14 11:57:13;;;;;;;11.15;10.05;;;23.90;99.90;;;;;;5001447;28;20206;-72
2022/04/14 11:59:44;;;;;;;11.60;10.25;;;23.80;99.90;;;;;;4983660;28;20180;-73
2022/04/14 12:02:18;;;;;;;9.68;8.65;;;23.60;99.90;;;;;;4968027;28;20246;-73
2022/04/14 12:04:49;;;;;;;11.45;9.32;;;23.60;99.90;;;;;;5000058;28;20195;-72
2022/04/14 12:07:16;;;;;;;8.60;7.10;;;23.50;99.90;;;;;;4962770;28;20211;-73
2022/04/14 12:09:42;;;;;;;8.15;6.53;;;23.60;99.90;;;;;;4977605;28;20373;-68
2022/04/14 12:12:14;;;;;;;7.40;6.20;;;23.60;99.90;;;;;;5008342;28;20186;-73
2022/04/14 12:14:47;;;;;;;8.52;7.72;;;23.60;99.90;;;;;;4968878;28;20184;-74
2022/04/14 12:17:16;;;;;;;9.40;8.02;;;23.70;99.90;;;;;;4956830;28;20242;-74
2022/04/14 12:19:50;;;;;;;9.57;8.60;;;23.70;99.90;;;;;;4969775;28;20177;-72
2022/04/14 12:22:15;;;;;;;8.75;7.85;;;23.70;99.90;;;;;;4984153;28;20176;-73
2022/04/14 12:25:03;;;;;;;8.05;7.22;;;23.70;99.90;;;;;;4990427;28;20199;-73
2022/04/14 12:27:34;;;;;;;8.25;6.78;;;23.70;99.90;;;;;;4975687;28;20171;-73
2022/04/14 12:30:21;;;;;;;6.70;6.03;;;23.70;99.90;;;;;;4973981;28;20208;-72
2022/04/14 12:32:48;;;;;;;7.80;7.00;;;23.80;99.90;;;;;;4975862;28;20215;-71
2022/04/14 12:35:36;;;;;;;7.28;5.53;;;23.70;99.90;;;;;;4971756;28;20497;-70
2022/04/14 12:38:16;;;;;;;7.47;5.82;;;23.70;99.90;;;;;;4997178;28;20211;-71
2022/04/14 12:41:04;;;;;;;4.45;3.97;;;23.60;99.90;;;;;;4965268;28;20223;-73
2022/04/14 12:43:55;;;;;;;5.95;4.47;;;23.60;99.90;;;;;;4956262;28;20203;-72